Terminal Aerodrome Forecast
Issued by NWS

Home | Current Version | Previous Version | Graphics & Text | Print | Product List | Glossary On
Versions: 1 2 3 4 5 6 7 8 9 10 11 12 13 14 15 16 17 18 19
718
FTUS42 KMHX 022339
TAFPGV
TAF
KPGV 022339Z 0300/0324 10005KT P6SM SKC
     FM030300 09003KT 6SM BR BKN019
     FM030600 09003KT 2SM BR OVC007
     FM031330 19012G19KT P6SM SCT025 BKN100
     FM031800 20017G24KT 6SM SHRA BKN045
      AMD LTD TO CLD VIS AND WIND=

USA.gov is the U.S. government's official web portal to all federal, state and local government web resources and services.